Time;durP1;ratioP1;P1;durP2;ratioP2;P2;SDS_P1;SDS_P2;PMS_P1;PMS_P2;Temp;Humidity;BMP_temperature;BMP_pressure;BME280_temperature;BME280_humidity;BME280_pressure;Samples;Min_cycle;Max_cycle;Signal;HPM_P1;HPM_P2
2023/01/04 00:00:09;;;;;;;43.22;20.30;;;;;;;6.15;nan;101792.91;5045123;28;20431;-75
2023/01/04 00:02:34;;;;;;;47.88;20.67;;;;;;;6.24;nan;101806.81;5044144;28;20391;-75
2023/01/04 00:05:00;;;;;;;46.47;20.75;;;;;;;6.34;nan;101828.41;5043089;28;20033;-74
2023/01/04 00:07:28;;;;;;;50.35;21.08;;;;;;;6.28;nan;101827.25;5046703;28;20380;-75
2023/01/04 00:09:54;;;;;;;45.60;20.27;;;;;;;6.29;nan;101833.31;5039005;28;20021;-75
2023/01/04 00:12:19;;;;;;;47.35;20.30;;;;;;;6.23;nan;101811.25;5041378;28;20509;-75
2023/01/04 00:14:45;;;;;;;47.65;21.02;;;;;;;6.26;nan;101816.13;5044593;28;20056;-74
2023/01/04 00:17:11;;;;;;;46.03;20.95;;;;;;;6.31;nan;101824.31;5042970;28;20029;-75
2023/01/04 00:19:36;;;;;;;51.72;21.48;;;;;;;6.31;nan;101824.31;5044758;28;20034;-75
2023/01/04 00:22:01;;;;;;;49.70;21.05;;;;;;;6.36;nan;101827.25;5040279;28;20020;-75
2023/01/04 00:24:27;;;;;;;47.38;20.92;;;;;;;6.31;nan;101826.94;5035020;28;20036;-75
2023/01/04 00:26:52;;;;;;;47.22;20.58;;;;;;;6.33;nan;101840.66;5035980;28;20052;-75
2023/01/04 00:29:18;;;;;;;47.90;20.25;;;;;;;6.01;nan;101790.91;5037958;28;20097;-75
2023/01/04 00:31:43;;;;;;;47.65;21.33;;;;;;;6.26;nan;101823.16;5037411;28;20017;-75
2023/01/04 00:34:12;;;;;;;47.80;21.52;;;;;;;6.42;nan;101844.13;5041525;28;20029;-75
2023/01/04 00:36:38;;;;;;;53.15;21.98;;;;;;;6.41;nan;101842.47;5036749;28;20032;-75
2023/01/04 00:39:06;;;;;;;51.80;22.50;;;;;;;6.36;nan;101839.53;5036733;28;20034;-75
2023/01/04 00:41:44;;;;;;;53.90;23.08;;;;;;;6.37;nan;101852.47;5038730;28;20071;-75
2023/01/04 00:44:11;;;;;;;47.38;22.23;;;;;;;6.36;nan;101861.28;5033433;28;20025;-75
2023/01/04 00:46:38;;;;;;;47.78;21.30;;;;;;;6.30;nan;101848.84;5036440;28;20025;-75
2023/01/04 00:49:04;;;;;;;50.33;20.90;;;;;;;6.31;nan;101839.19;5036355;28;20025;-75
2023/01/04 00:51:31;;;;;;;47.88;21.02;;;;;;;6.46;nan;101853.28;5036758;28;20029;-75
2023/01/04 00:53:57;;;;;;;57.60;23.65;;;;;;;6.48;nan;101855.75;5034330;28;20029;-75
2023/01/04 00:56:23;;;;;;;1999.90;494.75;;;;;;;6.64;nan;101854.94;5037598;28;20032;-75
2023/01/04 00:58:48;;;;;;;490.52;102.82;;;;;;;7.14;nan;101861.81;5041670;28;20029;-75
2023/01/04 01:01:14;;;;;;;77.65;30.77;;;;;;;7.17;nan;101861.47;5043227;28;20025;-75
2023/01/04 01:03:39;;;;;;;66.68;27.60;;;;;;;7.17;nan;101864.91;5040905;28;20472;-75
2023/01/04 01:06:06;;;;;;;53.38;23.70;;;;;;;7.08;nan;101863.25;5037961;28;20025;-76
2023/01/04 01:08:32;;;;;;;48.83;22.23;;;;;;;7.01;nan;101864.91;5038274;28;20029;-76
2023/01/04 01:11:08;;;;;;;55.25;23.52;;;;;;;7.01;nan;101878.81;5037034;28;20025;-75
2023/01/04 01:13:35;;;;;;;46.03;20.67;;;;;;;6.90;nan;101865.25;5046904;28;20037;-76
2023/01/04 01:16:03;;;;;;;55.92;22.60;;;;;;;6.90;nan;101876.53;5035146;28;20041;-76
2023/01/04 01:18:29;;;;;;;49.50;21.77;;;;;;;6.69;nan;101861.31;5043041;28;20128;-76
2023/01/04 01:20:54;;;;;;;51.15;20.48;;;;;;;6.84;nan;101881.63;5044808;28;20041;-76
2023/01/04 01:23:20;;;;;;;52.35;20.65;;;;;;;6.41;nan;101805.03;5041577;28;20383;-76
2023/01/04 01:25:45;;;;;;;54.88;22.02;;;;;;;6.80;nan;101881.94;5042427;28;20034;-75
2023/01/04 01:28:10;;;;;;;54.35;22.63;;;;;;;6.84;nan;101884.22;5041769;28;20028;-75
2023/01/04 01:30:40;;;;;;;62.85;22.85;;;;;;;6.86;nan;101892.75;5036587;28;20420;-75
2023/01/04 01:33:07;;;;;;;64.22;22.92;;;;;;;6.81;nan;101888.00;5036072;28;20021;-76
2023/01/04 01:35:33;;;;;;;56.90;22.40;;;;;;;6.82;nan;101890.47;5035077;28;20031;-75
2023/01/04 01:37:58;;;;;;;60.50;23.85;;;;;;;6.49;nan;101829.41;5047037;28;20029;-75
2023/01/04 01:40:23;;;;;;;64.75;24.52;;;;;;;6.74;nan;101872.13;5042671;28;20040;-76
2023/01/04 01:42:49;;;;;;;57.00;23.58;;;;;;;6.80;nan;101886.38;5037556;28;20513;-76
2023/01/04 01:45:32;;;;;;;62.30;23.25;;;;;;;6.83;nan;101886.03;5032627;28;20025;-76
2023/01/04 01:48:03;;;;;;;58.55;22.90;;;;;;;6.79;nan;101875.06;5038441;28;20029;-75
2023/01/04 01:50:35;;;;;;;59.97;24.05;;;;;;;6.86;nan;101877.84;5037300;28;20063;-76
2023/01/04 01:53:02;;;;;;;77.65;26.38;;;;;;;6.89;nan;101876.69;5032178;28;20021;-76
2023/01/04 01:55:30;;;;;;;77.38;25.65;;;;;;;6.86;nan;101874.41;5032758;28;20029;-76
2023/01/04 01:57:57;;;;;;;70.50;25.30;;;;;;;6.80;nan;101868.03;5037332;28;20025;-75
2023/01/04 02:00:22;;;;;;;72.50;24.92;;;;;;;6.90;nan;101876.53;5040601;28;20118;-76
2023/01/04 02:03:11;;;;;;;80.25;26.13;;;;;;;6.90;nan;101873.94;5035900;28;20613;-75
2023/01/04 02:05:37;;;;;;;81.15;27.58;;;;;;;6.90;nan;101876.53;5017489;28;20086;-75
2023/01/04 02:08:05;;;;;;;85.03;27.40;;;;;;;6.89;nan;101871.47;5036440;28;20067;-76
2023/01/04 02:10:31;;;;;;;77.97;25.83;;;;;;;6.87;nan;101868.19;5034319;28;20068;-75
2023/01/04 02:12:58;;;;;;;78.45;25.45;;;;;;;6.81;nan;101856.56;5034208;28;20101;-75
2023/01/04 02:15:27;;;;;;;81.03;27.40;;;;;;;6.85;nan;101865.75;5034399;28;20029;-76
2023/01/04 02:18:06;;;;;;;85.95;27.25;;;;;;;6.90;nan;101873.94;5039155;28;20525;-76
2023/01/04 02:20:43;;;;;;;84.38;26.80;;;;;;;6.83;nan;101859.84;5032623;28;20021;-76
2023/01/04 02:23:24;;;;;;;78.65;25.65;;;;;;;6.92;nan;101877.22;5052316;28;20048;-76
2023/01/04 02:26:20;;;;;;;251.07;36.50;;;;;;;6.91;nan;101872.94;5034252;28;20025;-76
2023/01/04 02:29:20;;;;;;;86.25;27.23;;;;;;;6.57;nan;101824.19;5040190;28;20055;-76
2023/01/04 02:31:56;;;;;;;88.45;26.23;;;;;;;6.90;nan;101881.78;5025604;28;20041;-75
2023/01/04 02:34:46;;;;;;;88.65;25.65;;;;;;;6.89;nan;101881.94;5031741;28;20087;-75
2023/01/04 02:37:23;;;;;;;77.13;26.90;;;;;;;6.87;nan;101879.50;5040544;28;20021;-76
2023/01/04 02:39:59;;;;;;;89.95;24.92;;;;;;;6.87;nan;101876.88;5031435;28;20766;-76
2023/01/04 02:46:13;;;;;;;81.85;25.30;;;;;;;6.82;nan;101863.44;5018642;28;20047;-75
2023/01/04 02:51:29;;;;;;;84.90;27.65;;;;;;;6.87;nan;101876.88;5022440;28;20100;-75
2023/01/04 02:53:57;;;;;;;93.18;28.38;;;;;;;6.81;nan;101867.88;5005974;28;20069;-75
2023/01/04 02:56:54;;;;;;;91.55;27.50;;;;;;;6.86;nan;101882.28;5022897;28;20029;-76
2023/01/04 02:59:33;;;;;;;90.05;28.67;;;;;;;6.62;nan;101835.97;5008105;28;20488;-75
2023/01/04 03:08:11;;;;;;;93.57;29.90;;;;;;;6.84;nan;101868.53;5023888;28;20451;-76
2023/01/04 03:10:52;;;;;;;92.63;31.87;;;;;;;6.72;nan;101847.91;5019788;28;20055;-76
2023/01/04 03:13:28;;;;;;;96.30;31.40;;;;;;;6.82;nan;101859.03;5020208;28;20035;-77
2023/01/04 03:16:06;;;;;;;87.22;33.30;;;;;;;6.88;nan;101860.19;5007873;28;20031;-71
2023/01/04 03:18:36;;;;;;;99.22;33.95;;;;;;;6.86;nan;101861.31;5025149;28;20480;-70
2023/01/04 03:21:03;;;;;;;88.50;33.22;;;;;;;6.79;nan;101848.88;5041362;28;20032;-75
2023/01/04 03:43:08;;;;;;;103.80;36.65;;;;;;;6.89;nan;101859.19;5037574;28;20202;-75
2023/01/04 03:49:21;;;;;;;98.72;34.97;;;;;;;6.85;nan;101862.28;5044927;28;20032;-76
2023/01/04 03:51:50;;;;;;;101.68;35.53;;;;;;;6.80;nan;101853.16;5033711;28;20029;-75
2023/01/04 03:54:22;;;;;;;;;;;;;;;6.91;nan;101862.47;5031765;28;20025;-76
2023/01/04 03:56:49;;;;;;;110.82;35.35;;;;;;;6.89;nan;101859.19;5041253;28;19980;-76
2023/01/04 03:59:15;;;;;;;109.18;35.10;;;;;;;6.94;nan;101877.88;5030217;28;20025;-76
2023/01/04 04:01:42;;;;;;;102.82;35.25;;;;;;;6.95;nan;101866.41;5039409;28;20383;-75
2023/01/04 04:09:36;;;;;;;98.97;34.13;;;;;;;7.00;nan;101861.47;5040774;28;20041;-75
2023/01/04 04:12:01;;;;;;;97.13;34.72;;;;;;;6.99;nan;101859.00;5038020;28;20025;-75
2023/01/04 04:14:27;;;;;;;99.35;35.78;;;;;;;6.99;nan;101848.53;5034701;28;20037;-75
2023/01/04 04:16:52;;;;;;;100.55;35.28;;;;;;;6.85;nan;101830.88;5041921;28;20025;-74
2023/01/04 04:19:17;;;;;;;101.28;35.60;;;;;;;7.03;nan;101855.91;5033615;28;20376;-74
2023/01/04 04:21:43;;;;;;;92.50;34.55;;;;;;;6.98;nan;101852.97;5050045;28;20029;-75
2023/01/04 04:24:19;;;;;;;94.93;34.88;;;;;;;7.03;nan;101857.72;5048073;28;20025;-76
2023/01/04 04:26:45;;;;;;;100.70;34.47;;;;;;;7.01;nan;101857.84;5040053;28;20055;-76
2023/01/04 04:29:10;;;;;;;117.90;38.70;;;;;;;6.93;nan;101851.84;5036323;28;20025;-76
2023/01/04 04:31:36;;;;;;;99.07;34.53;;;;;;;7.01;nan;101865.72;5037939;28;20026;-75
2023/01/04 04:34:01;;;;;;;103.07;35.83;;;;;;;7.00;nan;101864.09;5032083;28;20108;-75
2023/01/04 04:36:27;;;;;;;106.05;36.00;;;;;;;6.98;nan;101863.44;5041080;28;20522;-75
2023/01/04 04:38:52;;;;;;;99.07;33.70;;;;;;;6.90;nan;101849.56;5040223;28;20025;-75
2023/01/04 04:41:50;;;;;;;109.25;35.10;;;;;;;6.91;nan;101849.38;5035600;28;20033;-75
2023/01/04 04:44:17;;;;;;;100.28;33.63;;;;;;;6.93;nan;101859.69;5035953;28;20041;-75
2023/01/04 04:46:44;;;;;;;99.40;34.80;;;;;;;6.88;nan;101859.38;5045782;28;20029;-75
2023/01/04 04:49:10;;;;;;;105.00;35.15;;;;;;;6.66;nan;101829.44;5036546;28;20025;-75
2023/01/04 04:51:36;;;;;;;101.00;35.85;;;;;;;6.88;nan;101861.97;5051288;28;20035;-76
2023/01/04 04:54:02;;;;;;;118.15;36.65;;;;;;;6.74;nan;101852.97;5038663;28;20084;-76
2023/01/04 04:56:28;;;;;;;102.65;36.03;;;;;;;6.88;nan;101868.03;5042752;28;20403;-76
2023/01/04 04:58:53;;;;;;;125.72;38.25;;;;;;;6.85;nan;101863.13;5040584;28;20033;-76
2023/01/04 05:01:19;;;;;;;121.07;37.10;;;;;;;6.85;nan;101863.13;5041876;28;20025;-76
2023/01/04 05:03:44;;;;;;;140.43;38.17;;;;;;;6.91;nan;101872.13;5045631;28;20449;-76
2023/01/04 05:06:10;;;;;;;129.68;39.25;;;;;;;6.75;nan;101857.22;5036747;28;20029;-73
2023/01/04 05:08:35;;;;;;;124.18;38.65;;;;;;;6.86;nan;101870.00;5044020;28;20083;-74
2023/01/04 05:11:09;;;;;;;126.22;39.33;;;;;;;6.86;nan;101870.00;5041418;28;20037;-77
2023/01/04 05:13:35;;;;;;;127.88;40.55;;;;;;;6.82;nan;101866.91;5034050;28;20056;-74
2023/01/04 05:16:02;;;;;;;137.82;40.30;;;;;;;6.84;nan;101871.94;5039357;28;20025;-75
2023/01/04 05:18:28;;;;;;;118.25;39.25;;;;;;;6.77;nan;101865.72;5039431;28;20029;-75
2023/01/04 05:20:53;;;;;;;135.85;39.58;;;;;;;6.75;nan;101865.06;5051092;28;20107;-75
2023/01/04 05:23:20;;;;;;;132.85;40.75;;;;;;;6.82;nan;101879.16;5035018;28;20033;-75
2023/01/04 05:25:52;;;;;;;144.13;37.30;;;;;;;6.68;nan;101857.06;5038136;28;20061;-74
2023/01/04 05:28:17;;;;;;;118.55;38.35;;;;;;;6.80;nan;101878.53;5041198;28;20033;-75
2023/01/04 05:30:55;;;;;;;144.40;39.55;;;;;;;6.77;nan;101877.00;5035702;28;20040;-75
2023/01/04 05:33:22;;;;;;;148.00;41.28;;;;;;;6.78;nan;101885.72;5038506;28;20498;-75
2023/01/04 05:35:48;;;;;;;129.85;38.63;;;;;;;6.76;nan;101885.88;5042434;28;20146;-75
2023/01/04 05:38:14;;;;;;;145.02;39.75;;;;;;;6.74;nan;101882.59;5038556;28;20101;-76
2023/01/04 05:40:39;;;;;;;158.45;41.42;;;;;;;6.69;nan;101877.03;5036829;28;20082;-75
2023/01/04 05:43:04;;;;;;;138.27;41.70;;;;;;;6.74;nan;101892.25;5042032;28;20020;-74
2023/01/04 05:45:30;;;;;;;158.57;40.72;;;;;;;6.73;nan;101890.63;5045685;28;20472;-75
2023/01/04 05:47:55;;;;;;;135.40;42.30;;;;;;;6.71;nan;101887.34;5039129;28;20365;-74
2023/01/04 05:50:22;;;;;;;141.70;41.17;;;;;;;6.67;nan;101880.78;5044801;28;20082;-75
2023/01/04 05:52:48;;;;;;;152.63;41.75;;;;;;;6.73;nan;101890.63;5036975;28;20108;-75
2023/01/04 05:55:14;;;;;;;186.90;45.80;;;;;;;6.68;nan;101883.25;5040715;28;20063;-75
2023/01/04 05:57:39;;;;;;;196.13;46.75;;;;;;;6.55;nan;101870.63;5033935;28;20045;-75
2023/01/04 06:00:07;;;;;;;153.30;42.88;;;;;;;6.26;nan;101831.84;5038248;28;20104;-75
2023/01/04 06:02:33;;;;;;;212.18;48.95;;;;;;;6.59;nan;101884.22;5037239;28;20024;-75
2023/01/04 06:05:01;;;;;;;219.30;50.78;;;;;;;6.61;nan;101887.50;5039650;28;20095;-75
2023/01/04 06:07:28;;;;;;;171.43;41.63;;;;;;;6.71;nan;101897.81;5039210;28;20095;-76
2023/01/04 06:09:54;;;;;;;173.43;42.30;;;;;;;6.67;nan;101893.88;5040764;28;20052;-76
2023/01/04 06:12:19;;;;;;;154.88;41.75;;;;;;;6.62;nan;101888.31;5034950;28;20083;-76
2023/01/04 06:14:44;;;;;;;162.05;41.95;;;;;;;6.52;nan;101886.66;5039781;28;20628;-76
2023/01/04 06:17:10;;;;;;;188.35;45.85;;;;;;;6.69;nan;101912.84;5034168;28;20086;-74
2023/01/04 06:19:35;;;;;;;242.82;53.90;;;;;;;6.72;nan;101915.16;5034434;28;20107;-75
2023/01/04 06:22:01;;;;;;;531.33;90.70;;;;;;;6.53;nan;101888.28;5034754;28;20064;-75
2023/01/04 06:24:26;;;;;;;167.88;42.70;;;;;;;6.67;nan;101912.19;5034276;28;20028;-77
2023/01/04 06:26:52;;;;;;;171.32;41.85;;;;;;;6.67;nan;101913.00;5044441;28;20083;-78
2023/01/04 06:29:17;;;;;;;138.70;40.38;;;;;;;6.71;nan;101924.00;5033784;28;20083;-78
2023/01/04 06:31:43;;;;;;;240.63;51.65;;;;;;;6.66;nan;101921.84;5031982;28;20775;-78
2023/01/04 06:34:12;;;;;;;149.90;41.45;;;;;;;6.59;nan;101916.44;5043348;28;20036;-77
2023/01/04 06:36:38;;;;;;;;;;;;;;;6.69;nan;101925.94;5035416;28;20022;-74
2023/01/04 06:39:06;;;;;;;226.57;47.95;;;;;;;6.70;nan;101927.56;5040359;28;19913;-72
2023/01/04 06:41:33;;;;;;;240.05;52.42;;;;;;;6.68;nan;101929.53;5057607;28;20562;-73
2023/01/04 06:43:58;;;;;;;212.07;47.15;;;;;;;6.65;nan;101925.44;5042829;28;21672;-72
2023/01/04 06:46:24;;;;;;;147.32;39.80;;;;;;;6.65;nan;101929.84;5033531;28;20037;-73
2023/01/04 06:48:51;;;;;;;141.43;41.05;;;;;;;6.63;nan;101926.56;5038354;28;20083;-74
2023/01/04 06:51:16;;;;;;;147.07;40.97;;;;;;;6.63;nan;101929.19;5050334;28;20037;-73
2023/01/04 06:53:42;;;;;;;251.73;60.63;;;;;;;6.65;nan;101933.28;5031356;28;20108;-74
2023/01/04 06:56:08;;;;;;;140.88;42.20;;;;;;;6.66;nan;101942.78;5037204;28;20041;-75
2023/01/04 06:58:34;;;;;;;132.60;41.50;;;;;;;6.71;nan;101944.94;5045857;28;20037;-76
2023/01/04 07:00:59;;;;;;;142.00;41.53;;;;;;;6.67;nan;101938.38;5040435;28;20439;-75
2023/01/04 07:03:25;;;;;;;359.77;62.45;;;;;;;6.62;nan;101940.66;5033046;28;20060;-75
2023/01/04 07:05:53;;;;;;;599.38;82.43;;;;;;;6.63;nan;101937.06;5032189;28;20403;-73
2023/01/04 07:08:18;;;;;;;849.45;110.75;;;;;;;6.74;nan;101955.06;5037331;28;20029;-74
2023/01/04 07:10:45;;;;;;;401.05;69.60;;;;;;;6.77;nan;101955.56;5039165;28;20029;-76
2023/01/04 07:13:10;;;;;;;315.50;60.80;;;;;;;6.78;nan;101956.41;5030615;28;20495;-76
2023/01/04 07:15:36;;;;;;;146.07;46.03;;;;;;;6.78;nan;101967.69;5039844;28;20029;-75
2023/01/04 07:18:02;;;;;;;255.98;57.78;;;;;;;6.75;nan;101959.31;5038965;28;20029;-76
2023/01/04 07:20:27;;;;;;;181.07;49.13;;;;;;;6.83;nan;101967.19;5038008;28;20056;-76
2023/01/04 07:22:52;;;;;;;148.63;45.95;;;;;;;6.81;nan;101969.97;5044138;28;20049;-76
2023/01/04 07:25:18;;;;;;;157.05;50.78;;;;;;;6.82;nan;101974.25;5039029;28;20494;-76
2023/01/04 07:27:44;;;;;;;138.50;47.90;;;;;;;6.82;nan;101963.78;5036384;28;20400;-75
2023/01/04 07:30:10;;;;;;;189.25;52.13;;;;;;;6.85;nan;101972.25;5028941;28;20037;-76
2023/01/04 07:32:36;;;;;;;125.80;44.63;;;;;;;6.85;nan;101977.50;5032607;28;20037;-75
2023/01/04 07:35:01;;;;;;;132.82;46.10;;;;;;;6.70;nan;101959.00;5044504;28;20086;-76
2023/01/04 07:37:27;;;;;;;120.28;44.22;;;;;;;6.72;nan;101967.50;5032013;28;20563;-76
2023/01/04 07:39:52;;;;;;;115.97;41.83;;;;;;;6.75;nan;101978.50;5036034;28;20112;-76
2023/01/04 07:42:20;;;;;;;113.20;42.72;;;;;;;6.65;nan;101966.50;5040954;28;20037;-76
2023/01/04 07:44:46;;;;;;;155.57;57.17;;;;;;;6.76;nan;101995.00;5044588;28;20072;-75
2023/01/04 07:47:11;;;;;;;133.20;50.65;;;;;;;6.74;nan;101981.25;5039350;28;20061;-76
2023/01/04 07:49:36;;;;;;;137.88;53.03;;;;;;;6.76;nan;101985.34;5040838;28;20021;-75
2023/01/04 07:52:02;;;;;;;132.07;45.70;;;;;;;6.78;nan;101985.19;5040252;28;20036;-76
2023/01/04 07:54:27;;;;;;;133.35;45.88;;;;;;;6.77;nan;101986.97;5038119;28;20052;-76
2023/01/04 07:56:53;;;;;;;128.82;42.30;;;;;;;6.45;nan;101935.38;5037520;28;20559;-76
2023/01/04 07:59:20;;;;;;;122.97;40.83;;;;;;;6.61;nan;101971.25;5034436;28;20044;-76
2023/01/04 08:01:46;;;;;;;121.40;40.50;;;;;;;6.64;nan;101970.13;5032352;28;20033;-76
2023/01/04 08:04:13;;;;;;;153.13;52.15;;;;;;;6.75;nan;101988.13;5039556;28;20052;-76
2023/01/04 08:06:39;;;;;;;132.13;44.25;;;;;;;6.72;nan;101981.41;5043709;28;20032;-76
2023/01/04 08:09:05;;;;;;;136.77;43.50;;;;;;;6.79;nan;101999.91;5036101;28;20100;-76
2023/01/04 08:11:32;;;;;;;151.30;48.10;;;;;;;6.82;nan;102002.22;5037000;28;20034;-75
2023/01/04 08:13:57;;;;;;;158.25;52.72;;;;;;;6.76;nan;101987.16;5042349;28;20364;-76
2023/01/04 08:16:31;;;;;;;164.00;57.90;;;;;;;6.86;nan;102000.09;5034282;28;20032;-75
2023/01/04 08:18:59;;;;;;;168.52;51.88;;;;;;;6.87;nan;101997.34;5045445;28;20029;-75
2023/01/04 08:21:26;;;;;;;165.13;55.55;;;;;;;6.88;nan;101993.72;5037126;28;20562;-76
2023/01/04 08:23:52;;;;;;;184.43;55.33;;;;;;;6.96;nan;101996.34;5032813;28;20013;-76
2023/01/04 08:26:20;;;;;;;146.65;47.92;;;;;;;6.88;nan;101974.56;5039985;28;20078;-76
2023/01/04 08:28:46;;;;;;;132.40;42.78;;;;;;;6.96;nan;101991.09;5037931;28;20025;-76
2023/01/04 08:31:19;;;;;;;131.93;43.22;;;;;;;6.87;nan;101975.53;5035176;28;20032;-76
2023/01/04 08:33:45;;;;;;;121.20;40.67;;;;;;;6.86;nan;101982.59;5043159;28;20460;-76
2023/01/04 08:36:10;;;;;;;116.07;40.33;;;;;;;6.94;nan;101987.00;5035598;28;20112;-76
2023/01/04 08:38:36;;;;;;;119.03;42.45;;;;;;;6.93;nan;101977.53;5035547;28;20049;-77
2023/01/04 08:41:01;;;;;;;120.15;40.42;;;;;;;6.99;nan;101980.31;5035357;28;20025;-76
2023/01/04 08:43:27;;;;;;;131.90;42.20;;;;;;;6.98;nan;101978.66;5046340;28;20029;-76
2023/01/04 08:45:52;;;;;;;136.73;45.85;;;;;;;6.98;nan;101980.47;5047436;28;20036;-76
2023/01/04 08:48:18;;;;;;;124.25;43.60;;;;;;;7.02;nan;101982.63;5035949;28;20517;-76
2023/01/04 08:50:43;;;;;;;124.97;42.38;;;;;;;7.01;nan;101978.34;5034985;28;20092;-76
2023/01/04 08:53:09;;;;;;;120.38;41.40;;;;;;;6.91;nan;101956.72;5033096;28;20043;-77
2023/01/04 08:55:35;;;;;;;111.82;38.30;;;;;;;6.99;nan;101969.00;5035619;28;20500;-77
2023/01/04 08:58:02;;;;;;;120.70;38.58;;;;;;;7.05;nan;101984.09;5043771;28;20044;-76
2023/01/04 09:00:28;;;;;;;116.95;38.10;;;;;;;7.08;nan;101980.31;5036331;28;20029;-77
2023/01/04 09:02:54;;;;;;;121.70;40.40;;;;;;;7.08;nan;101977.69;5039819;28;20029;-77
2023/01/04 09:05:20;;;;;;;104.45;37.55;;;;;;;6.97;nan;101961.34;5042729;28;20025;-77
2023/01/04 09:07:45;;;;;;;105.57;37.67;;;;;;;6.98;nan;101952.47;5044883;28;20021;-76
2023/01/04 09:10:11;;;;;;;110.88;37.78;;;;;;;7.01;nan;101967.03;5041637;28;20027;-77
2023/01/04 09:12:37;;;;;;;106.85;36.78;;;;;;;7.05;nan;101971.00;5046373;28;20056;-76
2023/01/04 09:15:03;;;;;;;110.10;37.78;;;;;;;7.00;nan;101968.84;5037972;28;20101;-76
2023/01/04 09:17:28;;;;;;;106.32;38.38;;;;;;;6.98;nan;101959.53;5043581;28;20026;-78
2023/01/04 09:19:53;;;;;;;109.07;38.92;;;;;;;6.96;nan;101951.00;5036012;28;20574;-77
2023/01/04 09:22:19;;;;;;;128.82;39.10;;;;;;;6.98;nan;101952.47;5033845;28;20024;-80
2023/01/04 09:24:44;;;;;;;105.28;37.50;;;;;;;7.12;nan;101966.75;5041176;28;20037;-76
2023/01/04 09:27:09;;;;;;;99.78;37.60;;;;;;;7.15;nan;101968.22;5035096;28;20056;-75
2023/01/04 09:29:35;;;;;;;91.45;36.60;;;;;;;7.12;nan;101969.34;5030970;28;20112;-77
2023/01/04 09:32:00;;;;;;;96.15;38.03;;;;;;;7.12;nan;101964.13;5042238;28;20021;-77
2023/01/04 09:34:26;;;;;;;108.20;37.88;;;;;;;7.09;nan;101956.59;5043057;28;20029;-76
2023/01/04 09:36:51;;;;;;;107.65;38.55;;;;;;;7.12;nan;101963.31;5033582;28;20024;-77
2023/01/04 09:39:16;;;;;;;104.78;40.45;;;;;;;7.10;nan;101952.97;5032348;28;20483;-77
2023/01/04 09:41:51;;;;;;;105.90;40.63;;;;;;;7.10;nan;101952.16;5039525;28;20025;-77
2023/01/04 09:44:26;;;;;;;94.97;38.25;;;;;;;7.08;nan;101943.66;5036897;28;20131;-77
2023/01/04 09:46:58;;;;;;;105.30;37.53;;;;;;;7.09;nan;101940.03;5033227;28;20124;-77
2023/01/04 09:49:46;;;;;;;101.82;38.13;;;;;;;7.22;nan;101953.47;5042881;28;20091;-76
2023/01/04 09:52:16;;;;;;;97.72;36.75;;;;;;;7.26;nan;101956.59;5034896;28;20403;-77
2023/01/04 09:54:46;;;;;;;;;;;;;;;7.29;nan;101953.66;5038036;28;20021;-77
2023/01/04 09:57:35;;;;;;;109.22;39.58;;;;;;;7.45;nan;101943.16;5036573;28;20009;-77
2023/01/04 10:00:09;;;;;;;108.07;43.17;;;;;;;7.64;nan;101940.16;5054183;28;20062;-76
2023/01/04 10:02:41;;;;;;;90.80;38.97;;;;;;;7.58;nan;101937.38;5036990;28;20037;-76
2023/01/04 10:05:10;;;;;;;94.50;37.35;;;;;;;7.56;nan;101944.59;5041999;28;20115;-76
2023/01/04 10:07:35;;;;;;;98.10;38.17;;;;;;;7.52;nan;101946.75;5040273;28;20656;-77
2023/01/04 10:10:01;;;;;;;100.32;38.85;;;;;;;7.46;nan;101942.97;5040952;28;20033;-76
2023/01/04 10:13:03;;;;;;;101.78;38.13;;;;;;;7.46;nan;101929.03;5034377;28;20536;-76
2023/01/04 10:15:33;;;;;;;98.43;38.33;;;;;;;7.41;nan;101926.13;5038212;28;20035;-76
2023/01/04 10:18:23;;;;;;;106.05;39.65;;;;;;;7.48;nan;101929.69;5040191;28;20087;-75
2023/01/04 10:20:57;;;;;;;90.70;36.08;;;;;;;7.46;nan;101915.94;5045909;28;20043;-75
2023/01/04 10:23:37;;;;;;;83.95;33.25;;;;;;;7.41;nan;101905.16;5038974;28;20025;-75
2023/01/04 10:26:13;;;;;;;86.00;36.05;;;;;;;7.43;nan;101913.66;5032915;28;20072;-75
2023/01/04 10:28:44;;;;;;;78.85;33.75;;;;;;;7.42;nan;101918.09;5041702;28;20032;-75
2023/01/04 10:31:22;;;;;;;88.97;35.67;;;;;;;7.42;nan;101920.72;5038106;28;20025;-75
2023/01/04 10:33:48;;;;;;;94.32;36.90;;;;;;;7.43;nan;101922.34;5035506;28;20550;-75
2023/01/04 10:36:27;;;;;;;98.57;39.00;;;;;;;7.44;nan;101921.34;5036735;28;20033;-75
2023/01/04 10:39:05;;;;;;;100.05;37.58;;;;;;;7.43;nan;101911.84;5041277;28;20055;-75
2023/01/04 10:41:43;;;;;;;87.28;37.00;;;;;;;7.49;nan;101910.34;5040291;28;20033;-76
2023/01/04 10:44:18;;;;;;;88.82;37.15;;;;;;;7.53;nan;101916.09;5039625;28;20041;-76
2023/01/04 10:47:04;;;;;;;95.07;37.10;;;;;;;7.55;nan;101908.88;5040118;28;20502;-76
2023/01/04 10:49:48;;;;;;;86.78;35.47;;;;;;;7.54;nan;101908.06;5037448;28;20037;-76
2023/01/04 10:52:21;;;;;;;78.22;34.38;;;;;;;7.52;nan;101896.94;5044501;28;20035;-76
2023/01/04 10:54:52;;;;;;;83.35;35.38;;;;;;;7.66;nan;101919.84;5042430;28;20025;-73
2023/01/04 10:57:41;;;;;;;74.53;31.30;;;;;;;7.64;nan;101906.06;5035321;28;20033;-77
2023/01/04 11:00:14;;;;;;;65.95;29.38;;;;;;;7.75;nan;101917.19;5044640;28;20029;-77
2023/01/04 11:02:47;;;;;;;70.40;30.50;;;;;;;7.69;nan;101894.28;5056327;28;20029;-76
2023/01/04 11:05:22;;;;;;;74.35;31.73;;;;;;;7.80;nan;101899.94;5032885;28;20134;-76
2023/01/04 11:08:09;;;;;;;69.07;31.30;;;;;;;7.81;nan;101901.59;5041479;28;20112;-78
2023/01/04 11:10:51;;;;;;;61.38;29.60;;;;;;;7.85;nan;101902.06;5034832;28;20017;-78
2023/01/04 11:13:16;;;;;;;59.22;28.33;;;;;;;7.75;nan;101873.41;5036050;28;20075;-77
2023/01/04 11:15:42;;;;;;;57.47;25.88;;;;;;;7.84;nan;101884.69;5035341;28;20029;-78
2023/01/04 11:18:10;;;;;;;53.97;25.67;;;;;;;7.91;nan;101890.91;5038676;28;20124;-78
2023/01/04 11:20:36;;;;;;;55.17;25.55;;;;;;;7.97;nan;101889.41;5040203;28;20053;-76
2023/01/04 11:23:09;;;;;;;49.47;22.92;;;;;;;8.04;nan;101885.09;5037885;28;20053;-78
2023/01/04 11:25:41;;;;;;;47.50;23.13;;;;;;;7.91;nan;101856.00;5035620;28;20035;-77
2023/01/04 11:28:07;;;;;;;44.28;21.75;;;;;;;8.09;nan;101875.75;5043304;28;20053;-76
2023/01/04 11:31:08;;;;;;;34.03;17.23;;;;;;;8.13;nan;101878.84;5044850;28;20029;-74
2023/01/04 11:33:53;;;;;;;33.80;16.30;;;;;;;8.11;nan;101878.19;5031513;28;20037;-75
2023/01/04 11:36:31;;;;;;;30.67;15.25;;;;;;;8.16;nan;101875.84;5048964;28;20033;-75
2023/01/04 11:38:57;;;;;;;23.50;13.27;;;;;;;7.98;nan;101855.13;5039773;28;20021;-76
2023/01/04 11:41:23;;;;;;;23.25;12.48;;;;;;;8.05;nan;101858.72;5046710;28;20497;-74
2023/01/04 11:44:05;;;;;;;26.17;13.15;;;;;;;8.09;nan;101869.66;5047572;28;20056;-73
2023/01/04 11:46:32;;;;;;;27.38;14.48;;;;;;;8.18;nan;101880.94;5041836;28;20021;-77
2023/01/04 11:48:58;;;;;;;23.15;13.35;;;;;;;8.19;nan;101882.56;5034057;28;20031;-73
2023/01/04 11:51:35;;;;;;;22.92;13.18;;;;;;;8.21;nan;101878.81;5058076;28;20107;-75
2023/01/04 11:54:12;;;;;;;25.02;14.15;;;;;;;8.22;nan;101883.03;5035880;28;20048;-74
2023/01/04 11:57:08;;;;;;;27.50;13.90;;;;;;;8.22;nan;101872.56;5042717;28;20104;-74
2023/01/04 11:59:34;;;;;;;28.13;14.40;;;;;;;8.25;nan;101876.63;5037292;28;20033;-74
2023/01/04 12:02:33;;;;;;;32.03;16.23;;;;;;;8.27;nan;101877.28;5035756;28;20063;-75
2023/01/04 12:04:58;;;;;;;30.98;15.27;;;;;;;8.19;nan;101861.56;5032353;28;20037;-73
2023/01/04 12:07:34;;;;;;;30.90;16.35;;;;;;;8.08;nan;101841.81;5036197;28;20075;-75
2023/01/04 12:10:15;;;;;;;35.17;18.25;;;;;;;8.19;nan;101861.56;5041046;28;20028;-77
2023/01/04 12:12:40;;;;;;;37.85;17.92;;;;;;;8.05;nan;101831.66;5043841;28;20036;-75
2023/01/04 12:15:21;;;;;;;33.65;17.55;;;;;;;8.18;nan;101852.88;5035369;28;20037;-75
2023/01/04 12:17:54;;;;;;;36.55;19.13;;;;;;;8.22;nan;101867.31;5040218;28;20025;-75
2023/01/04 12:20:23;;;;;;;27.98;15.02;;;;;;;8.22;nan;101862.06;5047857;28;20035;-76